sensor_id;sensor_type;location;lat;lon;timestamp;temperature;humidity
41557;DHT22;27720;51.992;5.890;2023-02-14T00:00:17;8.60;99.90
41557;DHT22;27720;51.992;5.890;2023-02-14T00:02:43;8.60;99.90
41557;DHT22;27720;51.992;5.890;2023-02-14T00:05:09;8.60;99.90
41557;DHT22;27720;51.992;5.890;2023-02-14T00:07:35;8.60;99.90
41557;DHT22;27720;51.992;5.890;2023-02-14T00:10:00;8.60;99.90
41557;DHT22;27720;51.992;5.890;2023-02-14T00:12:26;8.60;99.90
41557;DHT22;27720;51.992;5.890;2023-02-14T00:14:52;8.50;99.90
41557;DHT22;27720;51.992;5.890;2023-02-14T00:17:36;8.50;99.90
41557;DHT22;27720;51.992;5.890;2023-02-14T00:20:07;8.50;99.90
41557;DHT22;27720;51.992;5.890;2023-02-14T00:22:33;8.50;99.90
41557;DHT22;27720;51.992;5.890;2023-02-14T00:24:58;8.40;99.90
41557;DHT22;27720;51.992;5.890;2023-02-14T00:27:24;8.40;99.90
41557;DHT22;27720;51.992;5.890;2023-02-14T00:29:50;8.40;99.90
41557;DHT22;27720;51.992;5.890;2023-02-14T00:32:15;8.40;99.90
41557;DHT22;27720;51.992;5.890;2023-02-14T00:34:41;8.40;99.90
41557;DHT22;27720;51.992;5.890;2023-02-14T00:37:09;8.40;99.90
41557;DHT22;27720;51.992;5.890;2023-02-14T00:39:35;8.40;99.90
41557;DHT22;27720;51.992;5.890;2023-02-14T00:42:00;8.40;99.90
41557;DHT22;27720;51.992;5.890;2023-02-14T00:44:26;8.40;99.90
41557;DHT22;27720;51.992;5.890;2023-02-14T00:46:52;8.40;99.90
41557;DHT22;27720;51.992;5.890;2023-02-14T00:49:17;8.40;99.90
41557;DHT22;27720;51.992;5.890;2023-02-14T00:51:43;8.40;99.90
41557;DHT22;27720;51.992;5.890;2023-02-14T00:54:09;8.30;99.90
41557;DHT22;27720;51.992;5.890;2023-02-14T00:56:34;8.30;99.90
41557;DHT22;27720;51.992;5.890;2023-02-14T00:59:00;8.30;99.90
41557;DHT22;27720;51.992;5.890;2023-02-14T01:01:26;8.30;99.90
41557;DHT22;27720;51.992;5.890;2023-02-14T01:03:52;8.30;99.90
41557;DHT22;27720;51.992;5.890;2023-02-14T01:06:18;8.40;99.90
41557;DHT22;27720;51.992;5.890;2023-02-14T01:08:44;8.30;99.90
41557;DHT22;27720;51.992;5.890;2023-02-14T01:11:17;8.30;99.90
41557;DHT22;27720;51.992;5.890;2023-02-14T01:13:45;8.30;99.90
41557;DHT22;27720;51.992;5.890;2023-02-14T01:16:15;8.30;99.90
41557;DHT22;27720;51.992;5.890;2023-02-14T01:18:42;8.30;99.90
41557;DHT22;27720;51.992;5.890;2023-02-14T01:21:19;8.20;99.90
41557;DHT22;27720;51.992;5.890;2023-02-14T01:23:52;8.30;99.90
41557;DHT22;27720;51.992;5.890;2023-02-14T01:26:19;8.20;99.90
41557;DHT22;27720;51.992;5.890;2023-02-14T01:28:46;8.20;99.90
41557;DHT22;27720;51.992;5.890;2023-02-14T01:31:15;8.20;99.90
41557;DHT22;27720;51.992;5.890;2023-02-14T01:33:44;8.20;99.90
41557;DHT22;27720;51.992;5.890;2023-02-14T01:36:18;8.20;99.90
41557;DHT22;27720;51.992;5.890;2023-02-14T01:38:45;8.20;99.90
41557;DHT22;27720;51.992;5.890;2023-02-14T01:41:12;8.10;99.90
41557;DHT22;27720;51.992;5.890;2023-02-14T01:46:17;8.10;99.90
41557;DHT22;27720;51.992;5.890;2023-02-14T01:48:43;8.10;99.90
41557;DHT22;27720;51.992;5.890;2023-02-14T01:51:12;8.10;99.90
41557;DHT22;27720;51.992;5.890;2023-02-14T01:53:38;8.00;99.90
41557;DHT22;27720;51.992;5.890;2023-02-14T01:56:09;8.00;99.90
41557;DHT22;27720;51.992;5.890;2023-02-14T01:58:38;8.00;99.90
41557;DHT22;27720;51.992;5.890;2023-02-14T02:01:05;8.00;99.90
41557;DHT22;27720;51.992;5.890;2023-02-14T02:03:40;8.00;99.90
41557;DHT22;27720;51.992;5.890;2023-02-14T02:06:14;8.00;99.90
41557;DHT22;27720;51.992;5.890;2023-02-14T02:11:30;8.00;99.90
41557;DHT22;27720;51.992;5.890;2023-02-14T02:13:56;7.90;99.90
41557;DHT22;27720;51.992;5.890;2023-02-14T02:16:29;7.90;99.90
41557;DHT22;27720;51.992;5.890;2023-02-14T02:31:10;7.70;99.90
41557;DHT22;27720;51.992;5.890;2023-02-14T02:36:32;7.70;99.90
41557;DHT22;27720;51.992;5.890;2023-02-14T02:47:41;7.60;99.90
41557;DHT22;27720;51.992;5.890;2023-02-14T02:56:30;7.60;99.90
41557;DHT22;27720;51.992;5.890;2023-02-14T02:59:37;7.60;99.90
41557;DHT22;27720;51.992;5.890;2023-02-14T03:02:09;7.60;99.90
41557;DHT22;27720;51.992;5.890;2023-02-14T03:04:39;7.50;99.90
41557;DHT22;27720;51.992;5.890;2023-02-14T03:07:37;7.50;99.90
41557;DHT22;27720;51.992;5.890;2023-02-14T03:10:17;7.60;99.90
41557;DHT22;27720;51.992;5.890;2023-02-14T03:12:56;7.50;99.90
41557;DHT22;27720;51.992;5.890;2023-02-14T03:18:31;7.50;99.90
41557;DHT22;27720;51.992;5.890;2023-02-14T03:29:38;7.50;99.90
41557;DHT22;27720;51.992;5.890;2023-02-14T03:37:38;7.50;99.90
41557;DHT22;27720;51.992;5.890;2023-02-14T03:40:12;7.40;99.90
41557;DHT22;27720;51.992;5.890;2023-02-14T03:42:45;7.40;99.90
41557;DHT22;27720;51.992;5.890;2023-02-14T03:45:21;7.40;99.90
41557;DHT22;27720;51.992;5.890;2023-02-14T03:47:49;7.40;99.90
41557;DHT22;27720;51.992;5.890;2023-02-14T03:50:18;7.40;99.90
41557;DHT22;27720;51.992;5.890;2023-02-14T03:52:46;7.30;99.90
41557;DHT22;27720;51.992;5.890;2023-02-14T03:55:15;7.30;99.90
41557;DHT22;27720;51.992;5.890;2023-02-14T03:57:54;7.30;99.90
41557;DHT22;27720;51.992;5.890;2023-02-14T04:00:24;7.40;99.90
41557;DHT22;27720;51.992;5.890;2023-02-14T04:03:01;7.30;99.90
41557;DHT22;27720;51.992;5.890;2023-02-14T04:05:28;7.30;99.90
41557;DHT22;27720;51.992;5.890;2023-02-14T04:07:56;7.30;99.90
41557;DHT22;27720;51.992;5.890;2023-02-14T04:10:22;7.30;99.90
41557;DHT22;27720;51.992;5.890;2023-02-14T04:12:49;7.30;99.90
41557;DHT22;27720;51.992;5.890;2023-02-14T04:15:15;7.30;99.90
41557;DHT22;27720;51.992;5.890;2023-02-14T04:17:41;7.30;99.90
41557;DHT22;27720;51.992;5.890;2023-02-14T04:20:27;7.30;99.90
41557;DHT22;27720;51.992;5.890;2023-02-14T04:22:53;7.20;99.90
41557;DHT22;27720;51.992;5.890;2023-02-14T04:25:20;7.20;99.90
41557;DHT22;27720;51.992;5.890;2023-02-14T04:27:46;7.20;99.90
41557;DHT22;27720;51.992;5.890;2023-02-14T04:30:12;7.20;99.90
41557;DHT22;27720;51.992;5.890;2023-02-14T04:32:39;7.20;99.90
41557;DHT22;27720;51.992;5.890;2023-02-14T04:35:06;7.20;99.90
41557;DHT22;27720;51.992;5.890;2023-02-14T04:37:32;7.20;99.90
41557;DHT22;27720;51.992;5.890;2023-02-14T04:39:58;7.20;99.90
41557;DHT22;27720;51.992;5.890;2023-02-14T04:42:24;7.10;99.90
41557;DHT22;27720;51.992;5.890;2023-02-14T04:44:49;7.10;99.90
41557;DHT22;27720;51.992;5.890;2023-02-14T04:47:16;7.10;99.90
41557;DHT22;27720;51.992;5.890;2023-02-14T04:49:42;7.10;99.90
41557;DHT22;27720;51.992;5.890;2023-02-14T04:52:07;7.10;99.90
41557;DHT22;27720;51.992;5.890;2023-02-14T04:54:33;7.10;99.90
41557;DHT22;27720;51.992;5.890;2023-02-14T04:56:59;7.10;99.90
41557;DHT22;27720;51.992;5.890;2023-02-14T04:59:25;7.10;99.90
41557;DHT22;27720;51.992;5.890;2023-02-14T05:01:51;7.00;99.90
41557;DHT22;27720;51.992;5.890;2023-02-14T05:04:17;7.00;99.90
41557;DHT22;27720;51.992;5.890;2023-02-14T05:06:43;7.00;99.90
41557;DHT22;27720;51.992;5.890;2023-02-14T05:09:09;7.00;99.90
41557;DHT22;27720;51.992;5.890;2023-02-14T05:11:35;7.00;99.90
41557;DHT22;27720;51.992;5.890;2023-02-14T05:14:01;7.00;99.90
41557;DHT22;27720;51.992;5.890;2023-02-14T05:16:26;7.00;99.90
41557;DHT22;27720;51.992;5.890;2023-02-14T05:18:52;7.00;99.90
41557;DHT22;27720;51.992;5.890;2023-02-14T05:21:18;6.90;99.90
41557;DHT22;27720;51.992;5.890;2023-02-14T05:23:44;6.90;99.90
41557;DHT22;27720;51.992;5.890;2023-02-14T05:26:09;6.90;99.90
41557;DHT22;27720;51.992;5.890;2023-02-14T05:28:35;6.90;99.90
41557;DHT22;27720;51.992;5.890;2023-02-14T05:31:01;6.90;99.90
41557;DHT22;27720;51.992;5.890;2023-02-14T05:33:27;6.90;99.90
41557;DHT22;27720;51.992;5.890;2023-02-14T05:35:53;6.80;99.90
41557;DHT22;27720;51.992;5.890;2023-02-14T05:38:19;6.80;99.90
41557;DHT22;27720;51.992;5.890;2023-02-14T05:40:44;6.80;99.90
41557;DHT22;27720;51.992;5.890;2023-02-14T05:43:11;6.80;99.90
41557;DHT22;27720;51.992;5.890;2023-02-14T05:45:36;6.80;99.90
41557;DHT22;27720;51.992;5.890;2023-02-14T05:48:02;6.70;99.90
41557;DHT22;27720;51.992;5.890;2023-02-14T05:50:28;6.70;99.90
41557;DHT22;27720;51.992;5.890;2023-02-14T05:52:54;6.70;99.90
41557;DHT22;27720;51.992;5.890;2023-02-14T05:55:20;6.70;99.90
41557;DHT22;27720;51.992;5.890;2023-02-14T05:57:46;6.60;99.90
41557;DHT22;27720;51.992;5.890;2023-02-14T06:00:13;6.60;99.90
41557;DHT22;27720;51.992;5.890;2023-02-14T06:02:39;6.60;99.90
41557;DHT22;27720;51.992;5.890;2023-02-14T06:05:06;6.60;99.90
41557;DHT22;27720;51.992;5.890;2023-02-14T06:07:32;6.50;99.90
41557;DHT22;27720;51.992;5.890;2023-02-14T06:09:58;6.50;99.90
41557;DHT22;27720;51.992;5.890;2023-02-14T06:12:24;6.50;99.90
41557;DHT22;27720;51.992;5.890;2023-02-14T06:14:49;6.40;99.90
41557;DHT22;27720;51.992;5.890;2023-02-14T06:17:15;6.40;99.90
41557;DHT22;27720;51.992;5.890;2023-02-14T06:19:41;6.40;99.90
41557;DHT22;27720;51.992;5.890;2023-02-14T06:22:07;6.40;99.90
41557;DHT22;27720;51.992;5.890;2023-02-14T06:24:33;6.40;99.90
41557;DHT22;27720;51.992;5.890;2023-02-14T06:26:59;6.30;99.90
41557;DHT22;27720;51.992;5.890;2023-02-14T06:29:25;6.30;99.90
41557;DHT22;27720;51.992;5.890;2023-02-14T06:31:51;6.30;99.90
41557;DHT22;27720;51.992;5.890;2023-02-14T06:34:17;6.30;99.90
41557;DHT22;27720;51.992;5.890;2023-02-14T06:36:43;6.30;99.90
41557;DHT22;27720;51.992;5.890;2023-02-14T06:39:08;6.20;99.90
41557;DHT22;27720;51.992;5.890;2023-02-14T06:41:34;6.20;99.90
41557;DHT22;27720;51.992;5.890;2023-02-14T06:44:00;6.20;99.90
41557;DHT22;27720;51.992;5.890;2023-02-14T06:46:26;6.20;99.90
41557;DHT22;27720;51.992;5.890;2023-02-14T06:48:52;6.20;99.90
41557;DHT22;27720;51.992;5.890;2023-02-14T06:51:18;6.10;99.90
41557;DHT22;27720;51.992;5.890;2023-02-14T06:53:43;6.10;99.90
41557;DHT22;27720;51.992;5.890;2023-02-14T06:56:09;6.10;99.90
41557;DHT22;27720;51.992;5.890;2023-02-14T06:58:35;6.10;99.90
41557;DHT22;27720;51.992;5.890;2023-02-14T07:01:01;6.00;99.90
41557;DHT22;27720;51.992;5.890;2023-02-14T07:03:26;6.10;99.90
41557;DHT22;27720;51.992;5.890;2023-02-14T07:05:53;6.00;99.90
41557;DHT22;27720;51.992;5.890;2023-02-14T07:08:19;6.00;99.90
41557;DHT22;27720;51.992;5.890;2023-02-14T07:10:45;6.00;99.90
41557;DHT22;27720;51.992;5.890;2023-02-14T07:13:11;6.00;99.90
41557;DHT22;27720;51.992;5.890;2023-02-14T07:15:38;6.00;99.90
41557;DHT22;27720;51.992;5.890;2023-02-14T07:18:04;6.00;99.90
41557;DHT22;27720;51.992;5.890;2023-02-14T07:20:31;6.00;99.90
41557;DHT22;27720;51.992;5.890;2023-02-14T07:22:56;6.00;99.90
41557;DHT22;27720;51.992;5.890;2023-02-14T07:25:22;6.00;99.90
41557;DHT22;27720;51.992;5.890;2023-02-14T07:27:48;6.00;99.90
41557;DHT22;27720;51.992;5.890;2023-02-14T07:30:14;6.00;99.90
41557;DHT22;27720;51.992;5.890;2023-02-14T07:32:40;6.00;99.90
41557;DHT22;27720;51.992;5.890;2023-02-14T07:35:07;6.00;99.90
41557;DHT22;27720;51.992;5.890;2023-02-14T07:37:34;6.00;99.90
41557;DHT22;27720;51.992;5.890;2023-02-14T07:40:13;6.00;99.90
41557;DHT22;27720;51.992;5.890;2023-02-14T07:42:39;6.00;99.90
41557;DHT22;27720;51.992;5.890;2023-02-14T07:45:07;5.90;99.90
41557;DHT22;27720;51.992;5.890;2023-02-14T07:47:36;5.90;99.90
41557;DHT22;27720;51.992;5.890;2023-02-14T07:50:02;5.90;99.90
41557;DHT22;27720;51.992;5.890;2023-02-14T07:52:28;5.90;99.90
41557;DHT22;27720;51.992;5.890;2023-02-14T07:54:54;6.00;99.90
41557;DHT22;27720;51.992;5.890;2023-02-14T07:57:19;6.00;99.90
41557;DHT22;27720;51.992;5.890;2023-02-14T07:59:45;5.90;99.90
41557;DHT22;27720;51.992;5.890;2023-02-14T08:02:11;5.90;99.90
41557;DHT22;27720;51.992;5.890;2023-02-14T08:04:37;6.00;99.90
41557;DHT22;27720;51.992;5.890;2023-02-14T08:07:03;6.00;99.90
41557;DHT22;27720;51.992;5.890;2023-02-14T08:09:28;6.00;99.90
41557;DHT22;27720;51.992;5.890;2023-02-14T08:11:56;6.00;99.90
41557;DHT22;27720;51.992;5.890;2023-02-14T08:14:41;6.00;99.90
41557;DHT22;27720;51.992;5.890;2023-02-14T08:17:08;6.00;99.90
41557;DHT22;27720;51.992;5.890;2023-02-14T08:19:35;6.00;99.90
41557;DHT22;27720;51.992;5.890;2023-02-14T08:22:05;6.00;99.90
41557;DHT22;27720;51.992;5.890;2023-02-14T08:24:31;6.10;99.90
41557;DHT22;27720;51.992;5.890;2023-02-14T08:26:57;6.10;99.90
41557;DHT22;27720;51.992;5.890;2023-02-14T08:29:23;6.10;99.90
41557;DHT22;27720;51.992;5.890;2023-02-14T08:31:48;6.20;99.90
41557;DHT22;27720;51.992;5.890;2023-02-14T08:34:15;6.20;99.90
41557;DHT22;27720;51.992;5.890;2023-02-14T08:36:41;6.10;99.90
41557;DHT22;27720;51.992;5.890;2023-02-14T08:39:07;6.20;99.90
41557;DHT22;27720;51.992;5.890;2023-02-14T08:41:33;6.20;99.90
41557;DHT22;27720;51.992;5.890;2023-02-14T08:43:59;6.30;99.90
41557;DHT22;27720;51.992;5.890;2023-02-14T08:46:25;6.30;99.90
41557;DHT22;27720;51.992;5.890;2023-02-14T08:48:51;6.40;99.90
41557;DHT22;27720;51.992;5.890;2023-02-14T08:51:19;6.40;99.90
41557;DHT22;27720;51.992;5.890;2023-02-14T08:53:45;6.50;99.90
41557;DHT22;27720;51.992;5.890;2023-02-14T08:56:13;6.50;99.90
41557;DHT22;27720;51.992;5.890;2023-02-14T08:58:39;6.50;99.90
41557;DHT22;27720;51.992;5.890;2023-02-14T09:01:13;6.50;99.90
41557;DHT22;27720;51.992;5.890;2023-02-14T09:03:39;6.60;99.90
41557;DHT22;27720;51.992;5.890;2023-02-14T09:06:11;6.70;99.90
41557;DHT22;27720;51.992;5.890;2023-02-14T09:08:38;6.70;99.90
41557;DHT22;27720;51.992;5.890;2023-02-14T09:11:13;6.70;99.90
41557;DHT22;27720;51.992;5.890;2023-02-14T09:13:40;6.80;99.90
41557;DHT22;27720;51.992;5.890;2023-02-14T09:16:07;6.90;99.90
41557;DHT22;27720;51.992;5.890;2023-02-14T09:18:34;6.90;99.90
41557;DHT22;27720;51.992;5.890;2023-02-14T09:21:00;7.00;99.90
41557;DHT22;27720;51.992;5.890;2023-02-14T09:23:26;7.00;99.90
41557;DHT22;27720;51.992;5.890;2023-02-14T09:26:00;7.00;99.90
41557;DHT22;27720;51.992;5.890;2023-02-14T09:28:27;7.10;99.90
41557;DHT22;27720;51.992;5.890;2023-02-14T09:30:53;7.10;99.90
41557;DHT22;27720;51.992;5.890;2023-02-14T09:33:18;7.10;99.90
41557;DHT22;27720;51.992;5.890;2023-02-14T09:35:44;7.20;99.90
41557;DHT22;27720;51.992;5.890;2023-02-14T09:38:10;7.20;99.90
41557;DHT22;27720;51.992;5.890;2023-02-14T09:40:46;7.30;99.90
41557;DHT22;27720;51.992;5.890;2023-02-14T09:43:18;7.30;99.90
41557;DHT22;27720;51.992;5.890;2023-02-14T09:45:52;7.40;99.90
41557;DHT22;27720;51.992;5.890;2023-02-14T09:48:30;7.40;99.90
41557;DHT22;27720;51.992;5.890;2023-02-14T09:51:07;7.50;99.90
41557;DHT22;27720;51.992;5.890;2023-02-14T09:54:00;7.50;99.90
41557;DHT22;27720;51.992;5.890;2023-02-14T09:59:16;7.70;99.90
41557;DHT22;27720;51.992;5.890;2023-02-14T10:10:45;8.00;99.90
41557;DHT22;27720;51.992;5.890;2023-02-14T10:15:55;8.20;99.90
41557;DHT22;27720;51.992;5.890;2023-02-14T10:21:40;8.40;99.90
41557;DHT22;27720;51.992;5.890;2023-02-14T10:24:13;8.50;99.90
41557;DHT22;27720;51.992;5.890;2023-02-14T10:26:41;8.60;99.90
41557;DHT22;27720;51.992;5.890;2023-02-14T10:29:12;8.70;99.90
41557;DHT22;27720;51.992;5.890;2023-02-14T10:31:55;8.80;99.90
41557;DHT22;27720;51.992;5.890;2023-02-14T10:34:47;8.90;99.90
41557;DHT22;27720;51.992;5.890;2023-02-14T10:45:15;9.10;99.90
41557;DHT22;27720;51.992;5.890;2023-02-14T10:51:33;9.30;99.90
41557;DHT22;27720;51.992;5.890;2023-02-14T10:56:32;9.60;99.90
41557;DHT22;27720;51.992;5.890;2023-02-14T10:59:12;9.60;99.90
41557;DHT22;27720;51.992;5.890;2023-02-14T11:01:39;9.70;99.90
41557;DHT22;27720;51.992;5.890;2023-02-14T11:04:07;9.70;99.90
41557;DHT22;27720;51.992;5.890;2023-02-14T11:06:36;9.80;99.90
41557;DHT22;27720;51.992;5.890;2023-02-14T11:09:02;9.90;99.90
41557;DHT22;27720;51.992;5.890;2023-02-14T11:12:11;10.00;99.90
41557;DHT22;27720;51.992;5.890;2023-02-14T11:14:31;10.10;99.90
41557;DHT22;27720;51.992;5.890;2023-02-14T11:16:58;10.10;99.90
41557;DHT22;27720;51.992;5.890;2023-02-14T11:19:29;10.20;99.90
41557;DHT22;27720;51.992;5.890;2023-02-14T11:21:57;10.30;99.90
41557;DHT22;27720;51.992;5.890;2023-02-14T11:27:02;10.50;99.90
41557;DHT22;27720;51.992;5.890;2023-02-14T11:34:53;10.80;99.90
41557;DHT22;27720;51.992;5.890;2023-02-14T11:37:27;10.90;99.90
41557;DHT22;27720;51.992;5.890;2023-02-14T11:39:55;11.00;99.90
41557;DHT22;27720;51.992;5.890;2023-02-14T11:42:48;11.10;99.90
41557;DHT22;27720;51.992;5.890;2023-02-14T11:45:33;11.20;99.90
41557;DHT22;27720;51.992;5.890;2023-02-14T11:48:23;11.20;99.90
41557;DHT22;27720;51.992;5.890;2023-02-14T11:51:12;11.30;99.90
41557;DHT22;27720;51.992;5.890;2023-02-14T11:53:52;11.30;99.90
41557;DHT22;27720;51.992;5.890;2023-02-14T11:56:21;11.40;99.90
41557;DHT22;27720;51.992;5.890;2023-02-14T11:58:54;11.40;99.90
41557;DHT22;27720;51.992;5.890;2023-02-14T12:01:24;11.60;99.90
41557;DHT22;27720;51.992;5.890;2023-02-14T12:03:51;11.70;99.90
41557;DHT22;27720;51.992;5.890;2023-02-14T12:06:29;11.70;99.90
41557;DHT22;27720;51.992;5.890;2023-02-14T12:11:57;11.80;99.90
41557;DHT22;27720;51.992;5.890;2023-02-14T12:14:25;11.90;99.90
41557;DHT22;27720;51.992;5.890;2023-02-14T12:16:59;12.00;99.90
41557;DHT22;27720;51.992;5.890;2023-02-14T12:20:10;12.10;99.90
41557;DHT22;27720;51.992;5.890;2023-02-14T12:23:09;12.10;99.90
41557;DHT22;27720;51.992;5.890;2023-02-14T12:26:11;12.20;99.90
41557;DHT22;27720;51.992;5.890;2023-02-14T12:28:44;12.30;99.90
41557;DHT22;27720;51.992;5.890;2023-02-14T12:31:12;12.30;99.90
41557;DHT22;27720;51.992;5.890;2023-02-14T12:33:39;12.40;99.90
41557;DHT22;27720;51.992;5.890;2023-02-14T12:49:48;13.00;99.90
41557;DHT22;27720;51.992;5.890;2023-02-14T12:57:59;13.10;99.60
41557;DHT22;27720;51.992;5.890;2023-02-14T13:03:07;13.40;99.20
41557;DHT22;27720;51.992;5.890;2023-02-14T13:14:01;13.70;97.60
41557;DHT22;27720;51.992;5.890;2023-02-14T13:16:53;13.70;98.30
41557;DHT22;27720;51.992;5.890;2023-02-14T13:21:59;13.70;97.10
41557;DHT22;27720;51.992;5.890;2023-02-14T13:24:42;13.70;96.90
41557;DHT22;27720;51.992;5.890;2023-02-14T13:27:15;13.70;96.50
41557;DHT22;27720;51.992;5.890;2023-02-14T13:29:48;13.70;96.60
41557;DHT22;27720;51.992;5.890;2023-02-14T13:32:18;13.70;96.40
41557;DHT22;27720;51.992;5.890;2023-02-14T13:34:47;13.80;96.40
41557;DHT22;27720;51.992;5.890;2023-02-14T13:37:17;13.80;96.30
41557;DHT22;27720;51.992;5.890;2023-02-14T13:40:08;13.80;96.20
41557;DHT22;27720;51.992;5.890;2023-02-14T13:42:50;13.80;95.10
41557;DHT22;27720;51.992;5.890;2023-02-14T13:53:47;13.50;94.60
41557;DHT22;27720;51.992;5.890;2023-02-14T13:59:03;13.40;95.00
41557;DHT22;27720;51.992;5.890;2023-02-14T14:01:40;13.40;94.80
41557;DHT22;27720;51.992;5.890;2023-02-14T14:17:32;13.20;95.00
41557;DHT22;27720;51.992;5.890;2023-02-14T14:19:59;13.20;95.20
41557;DHT22;27720;51.992;5.890;2023-02-14T14:22:26;13.20;95.30
41557;DHT22;27720;51.992;5.890;2023-02-14T14:25:01;13.20;95.20
41557;DHT22;27720;51.992;5.890;2023-02-14T14:27:44;13.20;95.20
41557;DHT22;27720;51.992;5.890;2023-02-14T14:32:42;13.00;95.20
41557;DHT22;27720;51.992;5.890;2023-02-14T14:37:56;13.00;95.30
41557;DHT22;27720;51.992;5.890;2023-02-14T14:42:51;12.90;95.40
41557;DHT22;27720;51.992;5.890;2023-02-14T14:45:22;12.90;95.50
41557;DHT22;27720;51.992;5.890;2023-02-14T14:47:50;12.90;95.50
41557;DHT22;27720;51.992;5.890;2023-02-14T14:50:32;12.90;95.60
41557;DHT22;27720;51.992;5.890;2023-02-14T14:53:03;12.90;95.50
41557;DHT22;27720;51.992;5.890;2023-02-14T14:55:35;12.80;95.60
41557;DHT22;27720;51.992;5.890;2023-02-14T14:58:04;12.80;95.60
41557;DHT22;27720;51.992;5.890;2023-02-14T15:00:32;12.80;95.60
41557;DHT22;27720;51.992;5.890;2023-02-14T15:05:43;12.90;95.70
41557;DHT22;27720;51.992;5.890;2023-02-14T15:11:11;12.90;95.60
41557;DHT22;27720;51.992;5.890;2023-02-14T15:13:44;12.80;95.60
41557;DHT22;27720;51.992;5.890;2023-02-14T15:18:48;12.70;95.80
41557;DHT22;27720;51.992;5.890;2023-02-14T15:21:14;12.70;95.80
41557;DHT22;27720;51.992;5.890;2023-02-14T15:23:42;12.70;95.90
41557;DHT22;27720;51.992;5.890;2023-02-14T15:26:44;12.70;96.00
41557;DHT22;27720;51.992;5.890;2023-02-14T15:29:26;12.60;95.90
41557;DHT22;27720;51.992;5.890;2023-02-14T15:31:53;12.60;96.10
41557;DHT22;27720;51.992;5.890;2023-02-14T15:34:24;12.60;96.20
41557;DHT22;27720;51.992;5.890;2023-02-14T15:36:53;12.50;96.20
41557;DHT22;27720;51.992;5.890;2023-02-14T15:39:27;12.60;96.30
41557;DHT22;27720;51.992;5.890;2023-02-14T15:41:54;12.50;96.20
41557;DHT22;27720;51.992;5.890;2023-02-14T15:44:24;12.50;96.30
41557;DHT22;27720;51.992;5.890;2023-02-14T15:46:56;12.50;96.40
41557;DHT22;27720;51.992;5.890;2023-02-14T15:49:30;12.50;96.40
41557;DHT22;27720;51.992;5.890;2023-02-14T15:51:56;12.50;96.40
41557;DHT22;27720;51.992;5.890;2023-02-14T15:54:37;12.40;96.50
41557;DHT22;27720;51.992;5.890;2023-02-14T15:57:05;12.40;96.50
41557;DHT22;27720;51.992;5.890;2023-02-14T15:59:34;12.30;96.60
41557;DHT22;27720;51.992;5.890;2023-02-14T16:02:03;12.30;96.70
41557;DHT22;27720;51.992;5.890;2023-02-14T16:04:38;12.30;96.80
41557;DHT22;27720;51.992;5.890;2023-02-14T16:07:24;12.20;96.80
41557;DHT22;27720;51.992;5.890;2023-02-14T16:10:26;12.20;96.80
41557;DHT22;27720;51.992;5.890;2023-02-14T16:15:24;12.00;97.10
41557;DHT22;27720;51.992;5.890;2023-02-14T16:17:51;11.90;97.00
41557;DHT22;27720;51.992;5.890;2023-02-14T16:22:47;12.00;97.30
41557;DHT22;27720;51.992;5.890;2023-02-14T16:25:13;11.90;97.60
41557;DHT22;27720;51.992;5.890;2023-02-14T16:27:39;11.90;97.30
41557;DHT22;27720;51.992;5.890;2023-02-14T16:30:16;11.90;97.40
41557;DHT22;27720;51.992;5.890;2023-02-14T16:32:42;11.90;97.40
